Time;durP1;ratioP1;P1;durP2;ratioP2;P2;SDS_P1;SDS_P2;PMS_P1;PMS_P2;Temp;Humidity;BMP_temperature;BMP_pressure;BME280_temperature;BME280_humidity;BME280_pressure;Samples;Min_cycle;Max_cycle;Signal;HPM_P1;HPM_P2
2023/01/03 00:00:17;;;;;;;;;;;3.90;99.90;;;;;;4973185;28;19918;-84
2023/01/03 00:02:43;;;;;;;;;;;3.90;99.90;;;;;;4974237;28;19917;-84
2023/01/03 00:05:08;;;;;;;;;;;3.90;99.90;;;;;;4991519;28;19929;-84
2023/01/03 00:07:34;;;;;;;;;;;3.90;99.90;;;;;;4958360;28;19965;-84
2023/01/03 00:10:04;;;;;;;;;;;3.90;99.90;;;;;;4974554;28;19929;-83
2023/01/03 00:12:31;;;;;;;;;;;4.20;99.90;;;;;;4969074;28;20034;-84
2023/01/03 00:14:57;;;;;;;;;;;3.80;99.90;;;;;;4991868;28;19918;-84
2023/01/03 00:17:22;;;;;;;;;;;3.80;99.90;;;;;;4974033;28;19983;-83
2023/01/03 00:19:48;;;;;;;;;;;3.80;99.90;;;;;;4974116;28;19917;-84
2023/01/03 00:22:14;;;;;;;;;;;3.80;99.90;;;;;;4973375;28;20021;-83
2023/01/03 00:24:40;;;;;;;;;;;3.80;99.90;;;;;;4972302;28;19921;-84
2023/01/03 00:27:06;;;;;;;;;;;3.70;99.90;;;;;;4974374;28;19988;-83
2023/01/03 00:29:31;;;;;;;;;;;3.80;99.90;;;;;;4974242;28;19928;-83
2023/01/03 00:31:57;;;;;;;;;;;3.70;99.90;;;;;;4957734;28;19924;-83
2023/01/03 00:34:23;;;;;;;;;;;3.60;99.90;;;;;;4973310;28;19925;-83
2023/01/03 00:36:49;;;;;;;;;;;3.60;99.90;;;;;;4958065;28;19918;-83
2023/01/03 00:39:14;;;;;;;;;;;3.70;99.90;;;;;;4974041;28;19929;-84
2023/01/03 00:41:40;;;;;;;;;;;3.90;99.90;;;;;;4975689;28;19987;-83
2023/01/03 00:44:06;;;;;;;;;;;3.60;99.90;;;;;;4974277;28;19922;-83
2023/01/03 00:46:31;;;;;;;;;;;3.60;99.90;;;;;;4988855;28;19929;-83
2023/01/03 00:48:57;;;;;;;;;;;3.60;99.90;;;;;;4973719;28;20422;-84
2023/01/03 00:51:24;;;;;;;;;;;3.50;99.90;;;;;;4973349;28;19948;-83
2023/01/03 00:53:51;;;;;;;;;;;3.50;99.90;;;;;;4968100;28;19964;-83
2023/01/03 00:56:18;;;;;;;;;;;3.50;99.90;;;;;;4969206;28;19933;-84
2023/01/03 00:58:43;;;;;;;;;;;3.40;99.90;;;;;;4970262;28;20624;-83
2023/01/03 01:01:14;;;;;;;;;;;3.40;99.90;;;;;;4971080;28;19964;-83
2023/01/03 01:03:42;;;;;;;;;;;3.40;99.90;;;;;;4972730;28;19948;-84
2023/01/03 01:06:14;;;;;;;;;;;3.40;99.90;;;;;;4990280;28;20012;-83
2023/01/03 01:08:40;;;;;;;;;;;3.30;99.90;;;;;;4989020;28;19921;-83
2023/01/03 01:11:06;;;;;;;;;;;3.40;99.90;;;;;;4986463;28;19952;-83
2023/01/03 01:13:32;;;;;;;;;;;3.40;99.90;;;;;;4972262;28;19926;-83
2023/01/03 01:16:09;;;;;;;;;;;3.30;99.90;;;;;;4972704;28;19972;-83
2023/01/03 01:18:35;;;;;;;;;;;3.30;99.90;;;;;;4990106;28;19924;-83
2023/01/03 01:21:05;;;;;;;;;;;3.30;99.90;;;;;;4991141;28;19917;-82
2023/01/03 01:23:30;;;;;;;;;;;3.40;99.90;;;;;;4990288;28;19964;-83
2023/01/03 01:25:58;;;;;;;;;;;3.40;99.90;;;;;;4989471;28;19922;-83
2023/01/03 01:28:24;;;;;;;;;;;3.40;99.90;;;;;;4972839;28;20376;-83
2023/01/03 01:30:49;;;;;;;;;;;3.40;99.90;;;;;;4990071;28;20228;-83
2023/01/03 01:33:15;;;;;;;;;;;3.50;99.90;;;;;;4990246;28;20372;-83
2023/01/03 01:35:41;;;;;;;;;;;3.50;99.90;;;;;;4973580;28;19925;-83
2023/01/03 01:38:06;;;;;;;;;;;3.60;99.90;;;;;;4990402;28;20295;-83
2023/01/03 01:40:32;;;;;;;;;;;3.60;99.90;;;;;;4972641;28;19972;-83
2023/01/03 01:45:45;;;;;;;;;;;3.70;99.90;;;;;;4973235;28;19965;-83
2023/01/03 01:48:12;;;;;;;;;;;4.40;99.90;;;;;;4990100;28;19999;-83
2023/01/03 01:50:45;;;;;;;;;;;3.70;99.90;;;;;;4968382;28;19936;-83
2023/01/03 01:53:13;;;;;;;;;;;3.70;99.90;;;;;;4976254;28;19922;-83
2023/01/03 01:55:45;;;;;;;;;;;3.70;99.90;;;;;;4956190;28;19941;-83
2023/01/03 01:58:11;;;;;;;;;;;3.70;99.90;;;;;;4988427;28;19955;-83
2023/01/03 02:00:38;;;;;;;;;;;3.80;99.90;;;;;;4989494;28;19926;-83
2023/01/03 02:03:03;;;;;;;;;;;3.80;99.90;;;;;;4972145;28;19968;-83
2023/01/03 02:05:30;;;;;;;;;;;4.00;99.90;;;;;;4988448;28;20070;-83
2023/01/03 02:07:56;;;;;;;;;;;4.90;99.90;;;;;;4973068;28;19917;-83
2023/01/03 02:10:45;;;;;;;;;;;4.10;99.90;;;;;;4971756;28;19933;-83
2023/01/03 02:13:20;;;;;;;;;;;3.70;99.90;;;;;;4981561;28;19917;-83
2023/01/03 02:15:55;;;;;;;;;;;3.70;99.90;;;;;;4989374;28;19918;-83
2023/01/03 02:18:23;;;;;;;;;;;3.70;99.90;;;;;;4985351;28;19917;-83
2023/01/03 02:20:57;;;;;;;;;;;3.70;99.90;;;;;;4971564;28;20470;-82
2023/01/03 02:23:26;;;;;;;;;;;3.70;99.90;;;;;;4987229;28;19922;-82
2023/01/03 02:26:03;;;;;;;;;;;3.70;99.90;;;;;;4990040;28;19921;-83
2023/01/03 02:28:48;;;;;;;;;;;3.70;99.90;;;;;;4970988;28;19917;-83
2023/01/03 02:31:23;;;;;;;;;;;3.70;99.90;;;;;;4988681;28;19921;-82
2023/01/03 02:34:06;;;;;;;;;;;5.00;99.90;;;;;;4989562;28;19929;-82
2023/01/03 02:36:34;;;;;;;;;;;3.70;99.90;;;;;;4972141;28;20365;-83
2023/01/03 02:39:07;;;;;;;;;;;3.80;99.90;;;;;;4963674;28;19929;-82
2023/01/03 02:41:39;;;;;;;;;;;3.80;99.90;;;;;;4988980;28;19925;-83
2023/01/03 02:44:21;;;;;;;;;;;3.80;99.90;;;;;;4989201;28;19965;-83
2023/01/03 02:46:57;;;;;;;;;;;3.80;99.90;;;;;;4983206;28;19949;-83
2023/01/03 02:49:35;;;;;;;;;;;3.90;99.90;;;;;;4987124;28;20368;-83
2023/01/03 02:52:02;;;;;;;;;;;3.90;99.90;;;;;;4988263;28;19969;-82
2023/01/03 02:54:31;;;;;;;;;;;3.80;99.90;;;;;;4971854;28;19976;-83
2023/01/03 02:56:59;;;;;;;;;;;3.90;99.90;;;;;;4973055;28;19918;-83
2023/01/03 02:59:29;;;;;;;;;;;3.80;99.90;;;;;;4974019;28;19956;-83
2023/01/03 03:01:54;;;;;;;;;;;3.80;99.90;;;;;;4975815;28;19921;-83
2023/01/03 03:04:21;;;;;;;;;;;3.70;99.90;;;;;;4992546;28;19944;-83
2023/01/03 03:06:51;;;;;;;;;;;3.70;99.90;;;;;;4975794;28;20320;-82
2023/01/03 03:09:16;;;;;;;;;;;3.60;99.90;;;;;;4973010;28;20269;-82
2023/01/03 03:14:40;;;;;;;;;;;3.50;99.90;;;;;;4991757;28;19960;-82
2023/01/03 03:17:09;;;;;;;;;;;3.50;99.90;;;;;;4990440;28;19917;-82
2023/01/03 03:25:18;;;;;;;;;;;3.40;99.90;;;;;;4988730;28;20289;-83
2023/01/03 03:30:53;;;;;;;;;;;3.30;99.90;;;;;;4949109;28;19930;-82
2023/01/03 03:33:20;;;;;;;;;;;3.30;99.90;;;;;;4959215;28;19965;-82
2023/01/03 03:35:48;;;;;;;;;;;3.30;99.90;;;;;;4952272;28;19917;-82
2023/01/03 03:38:17;;;;;;;;;;;3.20;99.90;;;;;;4952423;28;19925;-82
2023/01/03 03:46:23;;;;;;;;;;;3.10;99.90;;;;;;4946598;29;20345;-82
2023/01/03 03:51:54;;;;;;;;;;;3.00;99.90;;;;;;4931876;29;20471;-82
2023/01/03 03:54:21;;;;;;;;;;;3.00;99.90;;;;;;4919518;29;19930;-82
2023/01/03 03:56:49;;;;;;;;;;;3.00;99.90;;;;;;4929534;29;20039;-82
2023/01/03 03:59:17;;;;;;;;;;;3.30;99.90;;;;;;4937296;28;20035;-82
2023/01/03 04:01:43;;;;;;;;;;;2.90;99.90;;;;;;4963304;28;19922;-82
2023/01/03 04:04:18;;;;;;;;;;;2.90;99.90;;;;;;4974783;28;20068;-82
2023/01/03 04:06:46;;;;;;;;;;;2.90;99.90;;;;;;4970605;28;19918;-82
2023/01/03 04:09:12;;;;;;;;;;;2.80;99.90;;;;;;4975028;28;19922;-82
2023/01/03 04:11:37;;;;;;;;;;;2.80;99.90;;;;;;4972853;28;19929;-82
2023/01/03 04:14:03;;;;;;;;;;;2.80;99.90;;;;;;4953874;28;19949;-82
2023/01/03 04:16:29;;;;;;;;;;;2.80;99.90;;;;;;4989488;28;20372;-82
2023/01/03 04:18:54;;;;;;;;;;;2.90;99.90;;;;;;4974578;28;20012;-82
2023/01/03 04:21:20;;;;;;;;;;;2.80;99.90;;;;;;4974475;28;20369;-82
2023/01/03 04:23:46;;;;;;;;;;;2.80;99.90;;;;;;4991451;28;19922;-82
2023/01/03 04:26:11;;;;;;;;;;;2.80;99.90;;;;;;4974031;28;19922;-82
2023/01/03 04:28:37;;;;;;;;;;;2.80;99.90;;;;;;4990474;28;19931;-82
2023/01/03 04:31:02;;;;;;;;;;;2.80;99.90;;;;;;4969477;28;20344;-82
2023/01/03 04:33:28;;;;;;;;;;;2.80;99.90;;;;;;4970153;28;19933;-82
2023/01/03 04:35:53;;;;;;;;;;;2.80;99.90;;;;;;4973618;28;19924;-82
2023/01/03 04:38:19;;;;;;;;;;;2.80;99.90;;;;;;4972486;28;19921;-82
2023/01/03 04:40:44;;;;;;;;;;;2.80;99.90;;;;;;4974115;28;19917;-82
2023/01/03 04:45:54;;;;;;;;;;;2.80;99.90;;;;;;4978580;28;20017;-82
2023/01/03 04:48:20;;;;;;;;;;;4.10;99.90;;;;;;4988048;28;20012;-82
2023/01/03 04:50:56;;;;;;;;;;;2.70;99.90;;;;;;4973826;28;20388;-81
2023/01/03 04:53:22;;;;;;;;;;;2.70;99.90;;;;;;4991052;28;20004;-82
2023/01/03 04:55:48;;;;;;;;;;;2.70;99.90;;;;;;4973642;28;19940;-82
2023/01/03 04:58:14;;;;;;;;;;;2.70;99.90;;;;;;4973590;28;20373;-82
2023/01/03 05:00:39;;;;;;;;;;;2.80;99.90;;;;;;4960686;28;19921;-82
2023/01/03 05:03:05;;;;;;;;;;;2.80;99.90;;;;;;4973404;28;19921;-82
2023/01/03 05:05:30;;;;;;;;;;;2.80;99.90;;;;;;4970872;28;19922;-82
2023/01/03 05:07:56;;;;;;;;;;;2.80;99.90;;;;;;4962451;28;20383;-82
2023/01/03 05:10:21;;;;;;;;;;;2.80;99.90;;;;;;4973013;28;20008;-82
2023/01/03 05:12:58;;;;;;;;;;;2.90;99.90;;;;;;4991096;28;19926;-82
2023/01/03 05:15:26;;;;;;;;;;;2.90;99.90;;;;;;4990077;28;20017;-82
2023/01/03 05:17:51;;;;;;;;;;;3.80;99.90;;;;;;4957026;28;19952;-82
2023/01/03 05:25:48;;;;;;;;;;;3.00;99.90;;;;;;4960469;28;20380;-82
2023/01/03 05:28:14;;;;;;;;;;;3.10;99.90;;;;;;4973131;28;19945;-81
2023/01/03 05:30:39;;;;;;;;;;;3.20;99.90;;;;;;4990531;28;19926;-82
2023/01/03 05:33:05;;;;;;;;;;;3.20;99.90;;;;;;4971194;28;19925;-82
2023/01/03 05:35:30;;;;;;;;;;;3.20;99.90;;;;;;4968376;28;20347;-82
2023/01/03 05:37:56;;;;;;;;;;;3.30;99.90;;;;;;4972025;28;19943;-82
2023/01/03 05:40:21;;;;;;;;;;;3.30;99.90;;;;;;4972904;28;19922;-82
2023/01/03 05:42:47;;;;;;;;;;;3.30;99.90;;;;;;4989853;28;19936;-82
2023/01/03 05:45:13;;;;;;;;;;;4.30;99.90;;;;;;4972513;28;19928;-81
2023/01/03 05:47:38;;;;;;;;;;;3.40;99.90;;;;;;4988174;28;19917;-82
2023/01/03 05:50:04;;;;;;;;;;;3.40;99.90;;;;;;4990054;28;20324;-82
2023/01/03 05:52:29;;;;;;;;;;;3.40;99.90;;;;;;4972272;28;20331;-82
2023/01/03 05:54:55;;;;;;;;;;;4.10;99.90;;;;;;4989882;28;20016;-82
2023/01/03 05:57:21;;;;;;;;;;;3.40;99.90;;;;;;4989573;28;19918;-82
2023/01/03 05:59:46;;;;;;;;;;;3.40;99.90;;;;;;4972515;28;20399;-82
2023/01/03 06:02:15;;;;;;;;;;;3.40;99.90;;;;;;4971512;28;19918;-82
2023/01/03 06:04:40;;;;;;;;;;;3.40;99.90;;;;;;4972154;28;19925;-82
2023/01/03 06:07:06;;;;;;;;;;;3.50;99.90;;;;;;4971571;28;19918;-82
2023/01/03 06:09:32;;;;;;;;;;;3.50;99.90;;;;;;4989117;28;20464;-82
2023/01/03 06:11:57;;;;;;;;;;;4.20;99.90;;;;;;4989447;28;19929;-82
2023/01/03 06:14:23;;;;;;;;;;;3.50;99.90;;;;;;4955297;28;20006;-82
2023/01/03 06:19:32;;;;;;;;;;;3.70;99.90;;;;;;4988811;28;19921;-82
2023/01/03 06:21:58;;;;;;;;;;;3.30;99.90;;;;;;4989045;28;20261;-82
2023/01/03 06:24:23;;;;;;;;;;;3.30;99.90;;;;;;4975881;28;20008;-82
2023/01/03 06:26:49;;;;;;;;;;;3.20;99.90;;;;;;4969968;28;19964;-82
2023/01/03 06:29:15;;;;;;;;;;;3.10;99.90;;;;;;4970745;28;20000;-82
2023/01/03 06:31:40;;;;;;;;;;;3.10;99.90;;;;;;4967636;28;20677;-82
2023/01/03 06:34:06;;;;;;;;;;;3.00;99.90;;;;;;4989440;28;19925;-82
2023/01/03 06:36:33;;;;;;;;;;;3.00;99.90;;;;;;4971647;28;19918;-82
2023/01/03 06:38:58;;;;;;;;;;;3.00;99.90;;;;;;4971552;28;20392;-82
2023/01/03 06:41:24;;;;;;;;;;;2.90;99.90;;;;;;4972198;28;19917;-82
2023/01/03 06:43:50;;;;;;;;;;;2.90;99.90;;;;;;4972168;28;19922;-82
2023/01/03 06:54:34;;;;;;;;;;;2.70;99.90;;;;;;4984572;28;19926;-82
2023/01/03 06:56:59;;;;;;;;;;;2.60;99.90;;;;;;4972064;28;19924;-82
2023/01/03 06:59:25;;;;;;;;;;;2.60;99.90;;;;;;4964822;28;19922;-82
2023/01/03 07:01:51;;;;;;;;;;;2.50;99.90;;;;;;4961757;28;20408;-82
2023/01/03 07:04:17;;;;;;;;;;;2.50;99.90;;;;;;4965203;28;19924;-81
2023/01/03 07:06:43;;;;;;;;;;;2.50;99.90;;;;;;4971621;28;19929;-82
2023/01/03 07:09:08;;;;;;;;;;;2.50;99.90;;;;;;4989466;28;19918;-82
2023/01/03 07:11:34;;;;;;;;;;;2.40;99.90;;;;;;4972312;28;19921;-82
2023/01/03 07:14:01;;;;;;;;;;;3.00;99.90;;;;;;4972038;28;19921;-81
2023/01/03 07:16:31;;;;;;;;;;;2.40;99.90;;;;;;4971995;28;19957;-82
2023/01/03 07:18:57;;;;;;;;;;;2.40;99.90;;;;;;4971462;28;19921;-81
2023/01/03 07:21:23;;;;;;;;;;;2.50;99.90;;;;;;4955937;28;19925;-82
2023/01/03 07:23:51;;;;;;;;;;;2.30;99.90;;;;;;4971828;28;19921;-81
2023/01/03 07:26:18;;;;;;;;;;;2.30;99.90;;;;;;4989349;28;19972;-82
2023/01/03 07:28:43;;;;;;;;;;;2.30;99.90;;;;;;4989077;28;19957;-82
2023/01/03 07:31:09;;;;;;;;;;;2.70;99.90;;;;;;4971710;28;20130;-82
2023/01/03 07:33:37;;;;;;;;;;;2.20;99.90;;;;;;4949527;28;20261;-82
2023/01/03 07:36:09;;;;;;;;;;;2.20;99.90;;;;;;4967162;28;19926;-81
2023/01/03 07:38:35;;;;;;;;;;;2.20;99.90;;;;;;4970712;28;19918;-82
2023/01/03 07:41:01;;;;;;;;;;;2.20;99.90;;;;;;4988450;28;19925;-82
2023/01/03 07:43:36;;;;;;;;;;;2.20;99.90;;;;;;4991581;28;19925;-82
2023/01/03 07:46:04;;;;;;;;;;;2.20;99.90;;;;;;4992424;28;20008;-82
2023/01/03 07:48:30;;;;;;;;;;;2.20;99.90;;;;;;4974728;28;19928;-81
2023/01/03 07:50:56;;;;;;;;;;;2.20;99.90;;;;;;4959770;28;19922;-81
2023/01/03 07:53:22;;;;;;;;;;;2.20;99.90;;;;;;4956412;28;20376;-82
2023/01/03 07:55:48;;;;;;;;;;;2.10;99.90;;;;;;4975198;28;19917;-82
2023/01/03 07:58:13;;;;;;;;;;;2.10;99.90;;;;;;4992139;28;19918;-82
2023/01/03 08:00:40;;;;;;;;;;;2.10;99.90;;;;;;4960254;28;19977;-82
2023/01/03 08:03:05;;;;;;;;;;;2.10;99.90;;;;;;4969917;28;19922;-84
2023/01/03 08:05:32;;;;;;;;;;;2.10;99.90;;;;;;4990907;28;19924;-86
2023/01/03 08:07:57;;;;;;;;;;;3.20;99.90;;;;;;4992698;28;20289;-86
2023/01/03 08:13:16;;;;;;;;;;;2.10;99.90;;;;;;4993311;28;19922;-84
2023/01/03 08:15:49;;;;;;;;;;;2.10;99.90;;;;;;4956233;28;20650;-84
2023/01/03 08:18:16;;;;;;;;;;;2.20;99.90;;;;;;4974390;28;19936;-86
2023/01/03 08:20:41;;;;;;;;;;;2.10;99.90;;;;;;4991777;28;19933;-85
2023/01/03 08:23:07;;;;;;;;;;;2.10;99.90;;;;;;4975027;28;19925;-85
2023/01/03 08:25:32;;;;;;;;;;;2.10;99.90;;;;;;4990936;28;19945;-85
2023/01/03 08:27:59;;;;;;;;;;;2.10;99.90;;;;;;4993225;28;20381;-84
2023/01/03 08:30:25;;;;;;;;;;;2.10;99.90;;;;;;4974812;28;19917;-85
2023/01/03 08:32:52;;;;;;;;;;;2.10;99.90;;;;;;4992137;28;19967;-85
2023/01/03 08:35:18;;;;;;;;;;;2.10;99.90;;;;;;4954120;28;20181;-84
2023/01/03 08:37:44;;;;;;;;;;;2.10;99.90;;;;;;4990892;28;19918;-85
2023/01/03 08:40:13;;;;;;;;;;;2.10;99.90;;;;;;4973992;28;19925;-85
2023/01/03 08:42:38;;;;;;;;;;;2.10;99.90;;;;;;4973770;28;20038;-85
2023/01/03 08:45:07;;;;;;;;;;;2.10;99.90;;;;;;4992327;28;20010;-85
2023/01/03 08:47:33;;;;;;;;;;;2.20;99.90;;;;;;4973919;28;19921;-85
2023/01/03 08:49:59;;;;;;;;;;;3.20;99.90;;;;;;4973667;28;20316;-85
2023/01/03 08:52:24;;;;;;;;;;;2.20;99.90;;;;;;4988421;28;19934;-84
2023/01/03 08:54:50;;;;;;;;;;;2.70;99.90;;;;;;4956100;28;19928;-83
2023/01/03 08:57:15;;;;;;;;;;;2.10;99.90;;;;;;4971110;28;19917;-84
2023/01/03 08:59:41;;;;;;;;;;;2.20;99.90;;;;;;4991045;28;19949;-85
2023/01/03 09:02:06;;;;;;;;;;;2.30;99.90;;;;;;4972276;28;20020;-83
2023/01/03 09:04:32;;;;;;;;;;;2.30;99.90;;;;;;4974398;28;19921;-84
2023/01/03 09:06:57;;;;;;;;;;;2.30;99.90;;;;;;4991241;28;19928;-83
2023/01/03 09:09:23;;;;;;;;;;;2.20;99.90;;;;;;4974422;28;20376;-83
2023/01/03 09:11:48;;;;;;;;;;;2.20;99.90;;;;;;4972396;28;20001;-84
2023/01/03 09:14:14;;;;;;;;;;;2.20;99.90;;;;;;4973665;28;20006;-85
2023/01/03 09:16:39;;;;;;;;;;;3.00;99.90;;;;;;4970497;28;19972;-87
2023/01/03 09:19:05;;;;;;;;;;;2.10;99.90;;;;;;4989754;28;20022;-84
2023/01/03 09:21:30;;;;;;;;;;;2.10;99.90;;;;;;4990359;28;19921;-83
2023/01/03 09:23:57;;;;;;;;;;;2.10;99.90;;;;;;4972508;28;19921;-83
2023/01/03 09:26:23;;;;;;;;;;;2.20;99.90;;;;;;4985129;28;20251;-84
2023/01/03 09:28:49;;;;;;;;;;;2.20;99.90;;;;;;4968675;28;20003;-83
2023/01/03 09:31:14;;;;;;;;;;;2.20;99.90;;;;;;4987564;28;19922;-84
2023/01/03 09:33:40;;;;;;;;;;;2.30;99.90;;;;;;4967750;28;20076;-84
2023/01/03 09:36:05;;;;;;;;;;;2.30;99.90;;;;;;4981119;28;20296;-84
2023/01/03 09:38:31;;;;;;;;;;;2.30;99.90;;;;;;4973878;28;19968;-84
2023/01/03 09:40:59;;;;;;;;;;;2.40;99.90;;;;;;4969346;28;19944;-85
2023/01/03 09:43:31;;;;;;;;;;;2.50;99.90;;;;;;4969568;28;20032;-84
2023/01/03 09:46:00;;;;;;;;;;;2.50;99.90;;;;;;4971638;28;20440;-83
2023/01/03 09:48:31;;;;;;;;;;;2.60;99.90;;;;;;4972013;28;19918;-84
2023/01/03 09:50:57;;;;;;;;;;;2.60;99.90;;;;;;4970368;28;20032;-84
2023/01/03 10:04:49;;;;;;;;;;;3.00;99.90;;;;;;4946066;28;19996;-82
2023/01/03 10:07:24;;;;;;;;;;;3.10;99.90;;;;;;4946923;29;20053;-84
2023/01/03 10:10:00;;;;;;;;;;;3.20;99.90;;;;;;4935878;29;19929;-86
2023/01/03 10:12:58;;;;;;;;;;;3.30;99.90;;;;;;4929987;29;19923;-85
2023/01/03 10:15:34;;;;;;;;;;;3.40;99.90;;;;;;4910913;29;20557;-85
2023/01/03 10:18:07;;;;;;;;;;;3.70;99.90;;;;;;4931246;29;19930;-84
2023/01/03 10:20:39;;;;;;;;;;;3.50;99.90;;;;;;4931488;29;20462;-83
2023/01/03 10:23:06;;;;;;;;;;;4.00;99.90;;;;;;4936481;29;20012;-85
2023/01/03 10:25:31;;;;;;;;;;;3.70;99.90;;;;;;4907845;29;19918;-83
2023/01/03 10:28:01;;;;;;;;;;;3.70;99.90;;;;;;4920909;29;19922;-81
2023/01/03 10:30:35;;;;;;;;;;;3.70;99.90;;;;;;4916251;29;19927;-86
2023/01/03 10:33:08;;;;;;;;;;;3.80;99.90;;;;;;4914090;29;19926;-84
2023/01/03 10:35:34;;;;;;;;;;;3.90;99.90;;;;;;4918999;29;20075;-84
2023/01/03 10:38:00;;;;;;;;;;;3.90;99.90;;;;;;4937470;29;19930;-82
2023/01/03 10:40:32;;;;;;;;;;;4.00;99.90;;;;;;4918590;29;20712;-81
2023/01/03 10:42:57;;;;;;;;;;;4.00;99.90;;;;;;4935937;29;19922;-80
2023/01/03 10:45:23;;;;;;;;;;;3.10;99.90;;;;;;4919190;29;20423;-79
2023/01/03 10:47:59;;;;;;;;;;;4.10;99.90;;;;;;4908634;29;19919;-80
2023/01/03 10:50:25;;;;;;;;;;;4.20;99.90;;;;;;4931463;28;20052;-79
2023/01/03 10:52:56;;;;;;;;;;;4.20;99.90;;;;;;4977999;28;20450;-81
2023/01/03 10:55:24;;;;;;;;;;;4.30;99.90;;;;;;4978344;28;19980;-80
2023/01/03 10:57:58;;;;;;;;;;;4.30;99.90;;;;;;4981842;28;19926;-82
2023/01/03 11:00:34;;;;;;;;;;;4.40;99.90;;;;;;4963827;28;19996;-81
2023/01/03 11:03:10;;;;;;;;;;;4.50;99.90;;;;;;4982514;28;19922;-82
2023/01/03 11:05:36;;;;;;;;;;;4.50;99.90;;;;;;4964946;28;19968;-82
2023/01/03 11:08:03;;;;;;;;;;;4.60;99.90;;;;;;4952946;28;19921;-81
2023/01/03 11:10:32;;;;;;;;;;;4.60;99.90;;;;;;4969677;28;20504;-81
2023/01/03 11:12:57;;;;;;;;;;;4.70;99.90;;;;;;4987199;28;19922;-81
2023/01/03 11:15:34;;;;;;;;;;;4.80;99.90;;;;;;4970737;28;19918;-82
2023/01/03 11:18:04;;;;;;;;;;;4.90;99.90;;;;;;4953858;28;19921;-81
2023/01/03 11:20:51;;;;;;;;;;;4.90;99.90;;;;;;4987607;28;19918;-82
2023/01/03 11:23:23;;;;;;;;;;;5.00;99.90;;;;;;4972746;28;20458;-81
2023/01/03 11:26:03;;;;;;;;;;;5.10;99.90;;;;;;4974989;28;20004;-81
2023/01/03 11:28:46;;;;;;;;;;;5.10;99.90;;;;;;4981394;28;19918;-81
2023/01/03 11:31:17;;;;;;;;;;;5.20;99.90;;;;;;4993544;28;19917;-81
2023/01/03 11:33:46;;;;;;;;;;;5.20;99.90;;;;;;4989138;28;20426;-80
2023/01/03 11:36:21;;;;;;;;;;;5.20;99.90;;;;;;4989605;28;19926;-81
2023/01/03 11:38:50;;;;;;;;;;;5.30;99.90;;;;;;4993389;28;19924;-81
2023/01/03 11:41:25;;;;;;;;;;;5.30;99.90;;;;;;4972093;28;19921;-81
2023/01/03 11:44:09;;;;;;;;;;;5.30;99.90;;;;;;4972168;28;20012;-81
2023/01/03 11:46:34;;;;;;;;;;;5.40;99.90;;;;;;4987424;28;19918;-81
2023/01/03 11:49:06;;;;;;;;;;;5.40;99.90;;;;;;4975069;28;19922;-82
2023/01/03 11:51:38;;;;;;;;;;;5.40;99.90;;;;;;4991394;28;19932;-81
2023/01/03 11:54:13;;;;;;;;;;;5.50;99.90;;;;;;4974778;28;19922;-81
2023/01/03 11:56:43;;;;;;;;;;;5.50;99.90;;;;;;4993325;28;19945;-82
2023/01/03 11:59:30;;;;;;;;;;;5.50;99.90;;;;;;4993472;28;19918;-82
2023/01/03 12:02:15;;;;;;;;;;;5.50;99.90;;;;;;4986771;28;20250;-81
2023/01/03 12:04:59;;;;;;;;;;;5.50;99.90;;;;;;4969045;28;19921;-81
2023/01/03 12:07:34;;;;;;;;;;;5.60;99.90;;;;;;4985167;28;19918;-82
2023/01/03 12:10:09;;;;;;;;;;;5.60;99.90;;;;;;4973950;28;19921;-82
2023/01/03 12:12:34;;;;;;;;;;;5.60;99.90;;;;;;4991249;28;20517;-82
2023/01/03 12:15:03;;;;;;;;;;;5.60;99.90;;;;;;4974211;28;19981;-81
2023/01/03 12:17:35;;;;;;;;;;;5.70;99.90;;;;;;4970626;28;19926;-82
2023/01/03 12:20:02;;;;;;;;;;;5.70;99.90;;;;;;4990797;28;20398;-82
2023/01/03 12:22:40;;;;;;;;;;;5.70;99.90;;;;;;4972972;28;20039;-82
2023/01/03 12:25:12;;;;;;;;;;;5.70;99.90;;;;;;4987618;28;20354;-82
2023/01/03 12:27:40;;;;;;;;;;;5.70;99.90;;;;;;4992051;28;19980;-81
2023/01/03 12:30:19;;;;;;;;;;;5.80;99.90;;;;;;4992328;28;20265;-82
2023/01/03 12:32:53;;;;;;;;;;;5.80;99.90;;;;;;4972749;28;20635;-82
2023/01/03 12:35:43;;;;;;;;;;;5.80;99.90;;;;;;4987525;28;19918;-82
2023/01/03 12:38:09;;;;;;;;;;;5.80;99.90;;;;;;4975839;28;19918;-82
2023/01/03 12:40:43;;;;;;;;;;;6.00;99.90;;;;;;4973061;28;20017;-81
2023/01/03 12:43:12;;;;;;;;;;;5.80;99.90;;;;;;4967107;28;19921;-82
2023/01/03 12:45:57;;;;;;;;;;;5.90;99.90;;;;;;4974965;28;19917;-82
2023/01/03 12:48:30;;;;;;;;;;;5.90;99.90;;;;;;4988180;28;19917;-87
2023/01/03 12:50:59;;;;;;;;;;;6.40;99.90;;;;;;4983807;28;19918;-95
2023/01/03 12:53:34;;;;;;;;;;;6.40;99.90;;;;;;5000085;28;19921;-90
2023/01/03 12:56:05;;;;;;;;;;;6.00;99.90;;;;;;4980093;28;19925;-88
2023/01/03 12:58:42;;;;;;;;;;;5.90;99.90;;;;;;4978714;28;19930;-89
2023/01/03 13:01:16;;;;;;;;;;;6.00;99.90;;;;;;4996329;28;19929;-88
2023/01/03 13:03:44;;;;;;;;;;;6.00;99.90;;;;;;4975641;28;19956;-89
2023/01/03 13:06:13;;;;;;;;;;;6.10;99.90;;;;;;4976852;28;19922;-86
2023/01/03 13:08:48;;;;;;;;;;;6.10;99.90;;;;;;4979104;28;19941;-88
2023/01/03 13:11:20;;;;;;;;;;;6.10;99.90;;;;;;4979446;28;19934;-89
2023/01/03 13:13:51;;;;;;;;;;;6.10;99.90;;;;;;4979216;28;19929;-88
2023/01/03 13:16:35;;;;;;;;;;;6.10;99.90;;;;;;4978605;28;20407;-88
2023/01/03 13:19:19;;;;;;;;;;;6.10;99.90;;;;;;4973694;28;19929;-88
2023/01/03 13:21:49;;;;;;;;;;;6.20;99.90;;;;;;4976401;28;19918;-87
2023/01/03 13:24:34;;;;;;;;;;;6.20;99.90;;;;;;4978819;28;19922;-89
2023/01/03 13:29:53;;;;;;;;;;;6.20;99.90;;;;;;4996601;28;20379;-88
2023/01/03 13:32:18;;;;;;;;;;;6.20;99.90;;;;;;4995834;28;19922;-88
2023/01/03 13:35:04;;;;;;;;;;;6.20;99.90;;;;;;4978929;28;20472;-88
2023/01/03 13:37:45;;;;;;;;;;;6.20;99.90;;;;;;4955940;28;20392;-88
2023/01/03 13:40:10;;;;;;;;;;;6.30;99.90;;;;;;4970485;28;19925;-88
2023/01/03 13:42:37;;;;;;;;;;;6.30;99.90;;;;;;4977705;28;19922;-89
2023/01/03 13:45:16;;;;;;;;;;;6.30;99.90;;;;;;4975225;28;20068;-88
2023/01/03 13:47:44;;;;;;;;;;;6.30;99.90;;;;;;4977433;28;20272;-85
2023/01/03 13:50:23;;;;;;;;;;;6.30;99.90;;;;;;4959888;28;19925;-87
2023/01/03 13:52:58;;;;;;;;;;;6.40;99.90;;;;;;4973552;28;19922;-87
2023/01/03 13:55:48;;;;;;;;;;;6.40;99.90;;;;;;4992661;28;20378;-86
2023/01/03 13:58:23;;;;;;;;;;;6.40;99.90;;;;;;4991813;28;19924;-86
2023/01/03 14:00:52;;;;;;;;;;;6.40;99.90;;;;;;4994934;28;20397;-87
2023/01/03 14:03:24;;;;;;;;;;;6.40;99.90;;;;;;4975822;28;19945;-86
2023/01/03 14:06:10;;;;;;;;;;;6.40;99.90;;;;;;4973087;28;19929;-86
2023/01/03 14:08:39;;;;;;;;;;;6.40;99.90;;;;;;4952618;28;19925;-87
2023/01/03 14:11:15;;;;;;;;;;;6.50;99.90;;;;;;4992802;28;20057;-87
2023/01/03 14:13:52;;;;;;;;;;;6.50;99.90;;;;;;4975108;28;20328;-86
2023/01/03 14:16:17;;;;;;;;;;;6.50;99.90;;;;;;4974931;28;19976;-87
2023/01/03 14:18:45;;;;;;;;;;;7.30;99.90;;;;;;4976117;28;19925;-87
2023/01/03 14:21:14;;;;;;;;;;;6.80;99.90;;;;;;4975672;28;19926;-87
2023/01/03 14:23:41;;;;;;;;;;;6.50;99.90;;;;;;4992402;28;19929;-87
2023/01/03 14:26:15;;;;;;;;;;;7.10;99.90;;;;;;4976678;28;20348;-87
2023/01/03 14:28:45;;;;;;;;;;;6.50;99.90;;;;;;4976038;28;20003;-87
2023/01/03 14:31:21;;;;;;;;;;;6.60;99.90;;;;;;4971996;28;19932;-86
2023/01/03 14:34:10;;;;;;;;;;;6.60;99.90;;;;;;4974557;28;19918;-89
2023/01/03 14:36:43;;;;;;;;;;;6.60;99.90;;;;;;4990705;28;19941;-89
2023/01/03 14:39:19;;;;;;;;;;;6.60;99.90;;;;;;4974159;28;19984;-88
2023/01/03 14:41:45;;;;;;;;;;;7.50;99.90;;;;;;4952680;28;19973;-91
2023/01/03 14:44:11;;;;;;;;;;;6.60;99.90;;;;;;4992715;28;19917;-90
2023/01/03 14:46:39;;;;;;;;;;;6.60;99.90;;;;;;5000312;23;19932;-92
2023/01/03 14:49:13;;;;;;;;;;;6.60;99.90;;;;;;4990854;28;19925;-86
2023/01/03 14:51:39;;;;;;;;;;;6.60;99.90;;;;;;4969021;28;19936;-88
2023/01/03 14:54:05;;;;;;;;;;;6.60;99.90;;;;;;4964208;28;19925;-88
2023/01/03 14:56:30;;;;;;;;;;;6.60;99.90;;;;;;4963313;28;19941;-88
2023/01/03 14:58:56;;;;;;;;;;;8.00;99.90;;;;;;4974127;28;19929;-84
2023/01/03 15:01:22;;;;;;;;;;;6.70;99.90;;;;;;4963174;28;19921;-85
2023/01/03 15:03:49;;;;;;;;;;;7.70;99.90;;;;;;4963629;28;19933;-86
2023/01/03 15:06:34;;;;;;;;;;;6.70;99.90;;;;;;4990061;28;20448;-85
2023/01/03 15:09:11;;;;;;;;;;;6.70;99.90;;;;;;4985993;28;19922;-84
2023/01/03 15:11:55;;;;;;;;;;;6.80;99.90;;;;;;4989499;28;19917;-85
2023/01/03 15:14:28;;;;;;;;;;;6.80;99.90;;;;;;4975857;28;20347;-84
2023/01/03 15:17:09;;;;;;;;;;;6.80;99.90;;;;;;4975532;28;19925;-85
2023/01/03 15:19:36;;;;;;;;;;;6.80;99.90;;;;;;4968949;28;19922;-86
2023/01/03 15:22:13;;;;;;;;;;;6.80;99.90;;;;;;4986901;28;19922;-85
2023/01/03 15:24:43;;;;;;;;;;;6.80;99.90;;;;;;4986691;28;19996;-84
2023/01/03 15:27:27;;;;;;;;;;;6.80;99.90;;;;;;4974989;28;19968;-85
2023/01/03 15:29:53;;;;;;;;;;;6.80;99.90;;;;;;4983818;28;20383;-84
2023/01/03 15:32:19;;;;;;;;;;;6.80;99.90;;;;;;4972671;28;19925;-83
2023/01/03 15:34:44;;;;;;;;;;;6.90;99.90;;;;;;4991208;28;20013;-83
2023/01/03 15:37:11;;;;;;;;;;;6.90;99.90;;;;;;4966407;28;19928;-84
2023/01/03 15:39:37;;;;;;;;;;;6.80;99.90;;;;;;4975682;28;20392;-84
2023/01/03 15:44:47;;;;;;;;;;;7.30;99.90;;;;;;4988629;28;19922;-84